Pagrindinis puslapis
METAR-TAF:

METAR-TAF

Oro uostai :

Saks Harboras, Šiaurės Vakarai, Kanada

platuma: 72-00N, ilguma: 125-17W, Aukštis: 86 m

Dabartinis oras

Ataskaita buvo paskelbta 12 valandos ir 7 minutes, ne 23:00 UTC
Vėjas 9 kt iš Rytų/Šiaurės Rytų
Temperatūra -1°C
Drėgmė 86%
Slėgis 1025 hPa
Matomumas: 24.1 km
Su prošvaistėmis ne aukštis 1000 ft
sniegas

METAR: CYSY 042300Z 07009KT 15SM -SN BKN010 M01/M03 A3026 RMK SC6 LAST STFD OBS/NEXT 041300Z SLP258

Laikas: 05:07 (11:07 UTC)

Prognozė

Ataskaita buvo paskelbta 13 valandos ir 40 minutes, ne 21:27 UTC
Prognozė galioja nuo 04 metu 21 UTC su 04 metu 23 UTC
Vėjas 8 kt iš Rytų/Šiaurės Rytų
Matomumas: 10 km
Su prošvaistėmis ne aukštis 1000 ft
Laikinai
nuo 04 metu 21 UTC su 04 metu 23 UTC
Išsisklaidę debesys ne aukštis 1000 ft

TAF: CYSY 042127Z 0421/0423 06008KT P6SM BKN010 TEMPO 0421/0423 SCT010 RMK NXT FCST WILL BE ISSUED AT 051445Z

Orai ataskaitas ir orų prognozės (METAR, TAF).

turimą stotys yra geltonos ir raudonos taškus žemėlapyje.

Perkelti pele per norėdami pamatyti stoties vardą.

Tada spustelėkite, norėdami matyti oro stebėjimo ir prognozės.

Norėdami pakeisti žemėlapį: spustelėkite ant žalios mygtukų su juodo kryžiaus žemyn,; žalią mygtuką su brūkšneliu, jei norite nutolinti; arba žalių rodyklių gretimoms žemėlapius.


METAR-TAF: